Time;durP1;ratioP1;P1;durP2;ratioP2;P2;SDS_P1;SDS_P2;PMS_P1;PMS_P2;Temp;Humidity;BMP_temperature;BMP_pressure;BME280_temperature;BME280_humidity;BME280_pressure;Samples;Min_cycle;Max_cycle;Signal;HPM_P1;HPM_P2
2021/06/03 00:01:11;;;;;;;7.10;5.58;;;;;;;15.94;48.37;99714.30;1677760;85;20982;-61
2021/06/03 00:03:38;;;;;;;7.00;5.65;;;;;;;15.93;48.20;99716.65;1693908;84;21509;-60
2021/06/03 00:06:05;;;;;;;7.50;5.80;;;;;;;15.90;48.24;99716.53;1682493;84;21588;-60
2021/06/03 00:08:32;;;;;;;6.87;6.03;;;;;;;15.91;48.16;99718.71;1677691;85;21030;-60
2021/06/03 00:11:08;;;;;;;6.92;5.30;;;;;;;15.89;48.50;99720.27;1677733;85;21047;-62
2021/06/03 00:13:36;;;;;;;;;;;;;;;15.86;48.64;99721.16;1678287;85;21153;-62
2021/06/03 00:16:07;;;;;;;5.83;5.25;;;;;;;15.84;49.13;99721.38;1673239;85;21899;-62
2021/06/03 00:18:38;;;;;;;6.78;5.05;;;;;;;15.83;49.23;99719.70;1677664;85;20963;-61
2021/06/03 00:21:06;;;;;;;8.03;5.10;;;;;;;15.83;49.06;99717.02;1661676;85;21449;-60
2021/06/03 00:23:32;;;;;;;7.62;5.45;;;;;;;15.86;49.00;99721.16;1654989;84;21769;-61
2021/06/03 00:25:59;;;;;;;5.83;4.97;;;;;;;15.86;49.20;99719.31;1667762;83;21465;-63
2021/06/03 00:28:28;;;;;;;7.50;5.15;;;;;;;15.90;49.33;99717.08;1719174;80;21515;-62
2021/06/03 00:30:54;;;;;;;7.17;5.53;;;;;;;15.91;48.81;99714.18;1726926;80;20901;-60
2021/06/03 00:33:24;;;;;;;6.58;5.33;;;;;;;15.95;48.22;99720.82;1723502;81;21033;-64
2021/06/03 00:35:52;;;;;;;5.55;4.97;;;;;;;15.99;47.95;99719.89;1715608;83;20844;-61
2021/06/03 00:38:18;;;;;;;6.60;5.83;;;;;;;16.04;48.19;99716.09;1690940;84;20883;-62
2021/06/03 00:40:46;;;;;;;7.00;5.45;;;;;;;16.09;48.13;99719.00;1707265;82;20899;-62
2021/06/03 00:43:14;;;;;;;6.25;5.42;;;;;;;16.13;47.86;99715.42;1714791;81;20970;-62
2021/06/03 00:45:42;;;;;;;7.67;5.55;;;;;;;16.15;47.66;99722.24;1714091;83;21857;-61
2021/06/03 00:48:09;;;;;;;6.55;5.53;;;;;;;16.19;47.42;99727.51;1709513;83;21032;-60
2021/06/03 00:50:43;;;;;;;5.80;5.12;;;;;;;16.19;47.41;99730.19;1704518;83;21555;-62
2021/06/03 00:53:12;;;;;;;5.50;5.00;;;;;;;16.21;47.41;99724.64;1718551;83;21126;-61
2021/06/03 00:55:44;;;;;;;6.65;4.95;;;;;;;16.22;47.35;99716.38;1707065;83;21033;-59
2021/06/03 00:58:12;;;;;;;6.53;5.83;;;;;;;16.22;47.31;99717.72;1712950;83;21081;-60
2021/06/03 01:00:39;;;;;;;5.45;5.05;;;;;;;16.24;47.31;99716.20;1705352;83;20977;-62
2021/06/03 01:03:07;;;;;;;5.85;5.35;;;;;;;16.24;47.37;99717.53;1702521;83;21042;-60
2021/06/03 01:05:41;;;;;;;8.40;5.53;;;;;;;16.24;47.14;99716.20;1701337;83;21902;-60
2021/06/03 01:08:16;;;;;;;7.40;4.70;;;;;;;16.21;47.02;99717.42;1711241;83;20902;-61
2021/06/03 01:11:02;;;;;;;7.65;5.25;;;;;;;16.19;46.97;99715.43;1705145;83;21372;-63
2021/06/03 01:13:49;;;;;;;6.33;5.28;;;;;;;16.19;46.87;99722.14;1697939;83;20963;-61
2021/06/03 01:16:18;;;;;;;10.35;5.50;;;;;;;16.17;46.84;99714.81;1700850;83;21591;-65
2021/06/03 01:18:45;;;;;;;7.20;5.60;;;;;;;16.19;46.88;99722.68;1715760;83;21190;-62
2021/06/03 01:21:18;;;;;;;6.08;4.92;;;;;;;16.18;46.96;99726.37;1682884;83;21631;-61
2021/06/03 01:23:50;;;;;;;7.17;5.17;;;;;;;16.17;47.09;99723.38;1701346;83;21041;-61
2021/06/03 01:26:16;;;;;;;5.33;4.83;;;;;;;16.16;47.07;99725.77;1685096;83;20926;-64
2021/06/03 01:28:45;;;;;;;11.25;5.55;;;;;;;16.16;47.09;99721.73;1699276;83;21692;-61
2021/06/03 01:31:12;;;;;;;5.78;5.28;;;;;;;16.20;47.07;99725.16;1706476;83;21084;-61
2021/06/03 01:33:41;;;;;;;5.72;5.22;;;;;;;16.20;47.00;99715.75;1669166;83;20962;-62
2021/06/03 01:36:14;;;;;;;5.17;4.78;;;;;;;16.21;46.95;99721.95;1667558;83;21497;-61
2021/06/03 01:38:42;;;;;;;9.08;5.35;;;;;;;16.22;47.05;99720.91;1710288;83;20954;-62
2021/06/03 01:41:10;;;;;;;5.95;5.15;;;;;;;16.23;47.23;99721.23;1722943;83;21030;-61
2021/06/03 01:43:42;;;;;;;5.60;5.10;;;;;;;16.24;47.20;99717.53;1725675;83;21528;-63
2021/06/03 01:46:09;;;;;;;6.15;4.78;;;;;;;16.25;47.21;99720.52;1725629;83;21540;-61
2021/06/03 01:48:36;;;;;;;5.12;4.60;;;;;;;16.26;47.27;99722.18;1721948;83;21068;-62
2021/06/03 01:51:08;;;;;;;5.50;5.00;;;;;;;16.29;47.23;99725.81;1725655;83;21085;-61
2021/06/03 01:53:36;;;;;;;5.30;4.87;;;;;;;16.26;47.18;99722.18;1700952;83;20997;-62
2021/06/03 01:56:11;;;;;;;5.30;4.90;;;;;;;16.28;47.43;99718.77;1725760;83;20950;-65
2021/06/03 01:58:39;;;;;;;5.20;4.40;;;;;;;16.23;47.50;99719.89;1720846;83;20867;-60
2021/06/03 02:01:06;;;;;;;4.78;4.33;;;;;;;16.19;47.81;99724.02;1725368;83;21591;-61
2021/06/03 02:03:32;;;;;;;5.95;4.70;;;;;;;16.17;47.88;99723.38;1725624;83;21009;-60
2021/06/03 02:06:01;;;;;;;6.37;4.65;;;;;;;16.15;48.13;99725.44;1718851;83;21085;-58
2021/06/03 02:08:28;;;;;;;4.10;3.77;;;;;;;16.13;48.06;99727.49;1722447;83;21181;-59
2021/06/03 02:11:00;;;;;;;5.72;4.12;;;;;;;16.13;47.98;99728.84;1724940;83;21317;-60
2021/06/03 02:13:41;;;;;;;5.87;3.92;;;;;;;16.08;48.03;99726.22;1725662;83;21002;-60
2021/06/03 02:16:26;;;;;;;4.12;3.40;;;;;;;16.11;47.84;99722.85;1724545;83;21421;-64
2021/06/03 02:19:02;;;;;;;5.30;3.70;;;;;;;16.12;47.73;99719.95;1724883;83;20973;-60
2021/06/03 02:21:31;;;;;;;4.05;3.20;;;;;;;16.14;48.24;99717.09;1725377;83;21108;-61
2021/06/03 02:24:00;;;;;;;7.12;3.80;;;;;;;16.11;48.16;99726.87;1725612;83;20980;-60
2021/06/03 02:26:27;;;;;;;6.12;3.67;;;;;;;16.10;48.07;99723.36;1696405;83;21005;-60
2021/06/03 02:28:57;;;;;;;5.78;3.75;;;;;;;16.08;48.12;99726.77;1713708;83;20958;-60
2021/06/03 02:31:25;;;;;;;5.42;3.65;;;;;;;16.07;48.26;99727.78;1688331;83;20983;-61
2021/06/03 02:33:54;;;;;;;5.10;3.00;;;;;;;16.08;48.21;99726.77;1712333;83;21507;-59
2021/06/03 02:36:21;;;;;;;5.20;3.30;;;;;;;16.09;48.12;99735.11;1689527;83;21457;-59
2021/06/03 02:38:49;;;;;;;6.33;3.17;;;;;;;16.11;48.07;99732.24;1648707;85;21030;-60
2021/06/03 02:41:16;;;;;;;5.35;3.67;;;;;;;16.12;47.99;99735.22;1651745;85;21045;-60
2021/06/03 02:43:47;;;;;;;6.53;3.52;;;;;;;16.13;48.03;99737.72;1674290;85;20999;-63
2021/06/03 02:46:16;;;;;;;3.47;3.17;;;;;;;16.12;48.15;99743.27;1680195;85;21147;-61
2021/06/03 02:48:44;;;;;;;6.00;3.20;;;;;;;16.11;48.01;99741.63;1661335;86;21065;-63
2021/06/03 02:51:11;;;;;;;3.75;3.08;;;;;;;16.14;48.03;99742.59;1656604;86;21006;-60
2021/06/03 02:53:39;;;;;;;3.87;3.47;;;;;;;16.14;48.31;99740.70;1680927;85;20974;-60
2021/06/03 02:56:07;;;;;;;5.15;3.47;;;;;;;16.14;48.14;99740.70;1680262;85;21525;-60
2021/06/03 02:58:34;;;;;;;3.30;3.00;;;;;;;16.14;48.12;99745.27;1675703;85;21130;-61
2021/06/03 03:01:01;;;;;;;3.90;3.10;;;;;;;16.14;48.49;99743.92;1649610;85;21677;-60
2021/06/03 03:03:28;;;;;;;4.50;3.47;;;;;;;16.15;48.88;99740.20;1668817;85;21479;-61
2021/06/03 03:05:54;;;;;;;5.55;3.33;;;;;;;16.17;49.29;99744.84;1654490;86;21013;-63
2021/06/03 03:08:22;;;;;;;4.45;3.37;;;;;;;16.20;49.70;99750.65;1643829;86;21060;-62
2021/06/03 03:10:53;;;;;;;4.72;3.77;;;;;;;16.21;49.72;99752.83;1637342;86;21032;-61
2021/06/03 03:13:23;;;;;;;4.00;3.25;;;;;;;16.21;49.21;99744.27;1641870;87;20969;-61
2021/06/03 03:15:50;;;;;;;4.35;3.85;;;;;;;16.20;48.83;99753.84;1674307;84;21471;-61
2021/06/03 03:18:17;;;;;;;4.00;3.55;;;;;;;16.21;48.59;99749.64;1671474;85;21031;-61
2021/06/03 03:20:44;;;;;;;3.65;3.37;;;;;;;16.23;48.52;99756.97;1668815;85;21108;-60
2021/06/03 03:23:11;;;;;;;5.90;4.15;;;;;;;16.24;48.48;99757.26;1671073;85;22376;-63
2021/06/03 03:25:38;;;;;;;3.92;3.52;;;;;;;16.25;48.42;99757.59;1647351;86;20909;-64
2021/06/03 03:28:06;;;;;;;4.45;4.05;;;;;;;16.27;48.42;99758.75;1658912;85;21016;-60
2021/06/03 03:30:35;;;;;;;4.95;3.02;;;;;;;16.30;48.52;99755.13;1655687;86;21037;-61
2021/06/03 03:33:02;;;;;;;3.70;3.20;;;;;;;16.34;48.57;99757.74;1646199;86;20933;-60
2021/06/03 03:35:29;;;;;;;3.67;2.70;;;;;;;16.36;48.50;99760.22;1655865;86;21148;-63
2021/06/03 03:37:56;;;;;;;3.27;2.83;;;;;;;16.40;48.44;99764.17;1642700;86;21031;-61
2021/06/03 03:40:22;;;;;;;4.35;3.05;;;;;;;16.41;48.51;99768.50;1650022;86;20982;-63
2021/06/03 03:42:50;;;;;;;4.00;3.02;;;;;;;16.43;48.37;99767.77;1642882;86;21580;-61
2021/06/03 03:45:20;;;;;;;3.98;2.72;;;;;;;16.43;48.41;99766.43;1642690;86;21113;-61
2021/06/03 03:47:49;;;;;;;6.40;2.70;;;;;;;16.46;48.45;99758.81;1642712;86;20982;-61
2021/06/03 03:50:17;;;;;;;3.05;2.75;;;;;;;16.50;48.43;99758.70;1654179;86;21010;-61
2021/06/03 03:52:44;;;;;;;3.72;2.70;;;;;;;16.59;48.42;99755.37;1670458;84;20967;-63
2021/06/03 03:55:13;;;;;;;4.45;2.20;;;;;;;16.66;48.17;99761.58;1657112;85;21050;-62
2021/06/03 03:57:40;;;;;;;2.77;2.52;;;;;;;16.71;48.19;99754.28;1634883;86;21058;-61
2021/06/03 04:00:14;;;;;;;4.60;2.20;;;;;;;16.70;48.20;99753.45;1628675;86;21139;-63
2021/06/03 04:02:45;;;;;;;5.15;2.95;;;;;;;16.72;48.23;99756.75;1640757;86;20979;-61
2021/06/03 04:05:13;;;;;;;4.30;2.83;;;;;;;16.81;48.12;99753.37;1641721;86;21038;-61
2021/06/03 04:07:40;;;;;;;3.20;2.90;;;;;;;16.89;47.96;99756.70;1644294;86;21086;-64
2021/06/03 04:10:17;;;;;;;5.28;3.60;;;;;;;16.93;47.93;99763.30;1679896;84;20915;-61
2021/06/03 04:12:44;;;;;;;3.20;2.90;;;;;;;17.03;47.83;99764.24;1640434;85;21162;-64
2021/06/03 04:15:13;;;;;;;5.17;2.47;;;;;;;17.08;47.80;99762.59;1654608;86;21538;-59
2021/06/03 04:17:40;;;;;;;2.80;2.58;;;;;;;17.13;47.79;99769.53;1642942;86;20967;-61
2021/06/03 04:20:13;;;;;;;2.62;2.15;;;;;;;17.26;47.65;99759.30;1634240;86;21011;-63
2021/06/03 04:22:41;;;;;;;6.40;2.58;;;;;;;17.38;47.57;99761.70;1626745;86;21113;-64
2021/06/03 04:25:09;;;;;;;6.15;2.52;;;;;;;17.68;47.40;99765.63;1662703;84;21179;-63
2021/06/03 04:27:36;;;;;;;3.42;3.08;;;;;;;18.21;46.71;99766.34;1670363;83;20967;-63
2021/06/03 04:30:07;;;;;;;3.00;2.62;;;;;;;18.82;45.64;99761.30;1686284;84;20903;-61
2021/06/03 04:32:33;;;;;;;6.62;2.42;;;;;;;19.31;44.24;99760.56;1688463;84;20989;-65
2021/06/03 04:35:02;;;;;;;3.30;2.65;;;;;;;19.49;43.58;99766.05;1691268;84;20943;-64
2021/06/03 04:37:28;;;;;;;3.05;2.62;;;;;;;19.80;43.12;99765.13;1690771;84;21083;-62
2021/06/03 04:39:55;;;;;;;5.70;3.15;;;;;;;20.13;42.46;99768.30;1685335;84;20970;-65
2021/06/03 04:42:21;;;;;;;4.40;2.98;;;;;;;20.31;42.22;99767.49;1673613;84;21490;-63
2021/06/03 04:44:48;;;;;;;7.03;2.83;;;;;;;20.39;41.97;99771.80;1689012;84;21010;-65
2021/06/03 04:47:15;;;;;;;3.33;3.02;;;;;;;20.48;41.78;99776.66;1694370;84;21002;-55
2021/06/03 04:49:41;;;;;;;4.75;4.10;;;;;;;20.54;41.50;99779.81;1691243;84;21142;-61
2021/06/03 04:52:25;;;;;;;6.35;3.22;;;;;;;20.62;41.35;99782.72;1691057;84;20967;-58
2021/06/03 04:54:57;;;;;;;3.37;2.77;;;;;;;20.69;41.34;99775.34;1686000;84;20876;-62
2021/06/03 04:57:25;;;;;;;2.70;2.50;;;;;;;20.99;41.03;99775.35;1689687;84;21123;-60
2021/06/03 04:59:51;;;;;;;3.12;2.37;;;;;;;21.87;40.04;99766.25;1686146;84;21503;-58
2021/06/03 05:02:21;;;;;;;2.60;2.37;;;;;;;23.05;38.43;99767.85;1682279;84;21160;-59
2021/06/03 05:04:49;;;;;;;4.40;3.67;;;;;;;24.32;36.59;99759.83;1679963;84;21141;-65
2021/06/03 05:07:16;;;;;;;4.35;3.20;;;;;;;25.53;34.67;99763.31;1686320;84;21489;-64
2021/06/03 05:09:43;;;;;;;3.55;3.10;;;;;;;26.56;32.91;99760.94;1691158;84;20986;-63
2021/06/03 05:12:10;;;;;;;4.62;2.45;;;;;;;27.54;31.03;99753.77;1689032;84;20962;-67
2021/06/03 05:14:38;;;;;;;2.80;2.52;;;;;;;28.23;29.91;99749.55;1688825;85;20990;-64
2021/06/03 05:17:05;;;;;;;4.40;3.05;;;;;;;29.06;28.77;99756.81;1685699;85;20962;-67
2021/06/03 05:19:34;;;;;;;5.83;2.70;;;;;;;29.82;27.75;99756.23;1688688;85;21013;-64
2021/06/03 05:22:04;;;;;;;4.33;3.00;;;;;;;30.58;26.72;99751.52;1688168;85;21019;-66
2021/06/03 05:24:32;;;;;;;5.75;2.70;;;;;;;31.10;26.05;99754.64;1688763;85;21587;-67
2021/06/03 05:26:59;;;;;;;3.50;2.60;;;;;;;31.40;25.22;99754.72;1689032;85;21115;-66
2021/06/03 05:29:27;;;;;;;3.80;2.77;;;;;;;31.77;24.89;99757.97;1660702;85;20915;-66
2021/06/03 05:31:55;;;;;;;3.27;2.75;;;;;;;32.21;24.23;99759.63;1643976;86;21057;-65
2021/06/03 05:34:23;;;;;;;2.55;2.35;;;;;;;32.38;23.75;99760.95;1644691;87;21070;-65
2021/06/03 05:36:51;;;;;;;5.55;2.65;;;;;;;32.26;23.88;99760.08;1647939;87;20872;-66
2021/06/03 05:39:18;;;;;;;2.85;2.65;;;;;;;32.43;23.50;99764.42;1647372;87;21164;-66
2021/06/03 05:41:44;;;;;;;5.40;2.95;;;;;;;32.56;23.36;99755.92;1647882;87;21540;-65
2021/06/03 05:44:12;;;;;;;3.50;3.20;;;;;;;32.38;23.11;99759.02;1647923;86;21004;-67
2021/06/03 05:46:39;;;;;;;6.40;3.25;;;;;;;31.99;23.35;99759.49;1647714;87;21087;-66
2021/06/03 05:49:08;;;;;;;3.70;3.05;;;;;;;31.86;23.61;99762.22;1647901;86;20931;-68
2021/06/03 05:51:35;;;;;;;5.05;2.98;;;;;;;31.83;23.57;99758.14;1647593;87;21145;-65
2021/06/03 05:54:02;;;;;;;3.42;3.02;;;;;;;31.86;23.73;99764.97;1647860;87;21516;-67
2021/06/03 05:56:28;;;;;;;4.83;3.70;;;;;;;32.01;23.78;99768.28;1647808;86;20939;-66
2021/06/03 05:58:56;;;;;;;6.42;3.00;;;;;;;32.15;23.03;99763.59;1647730;87;21527;-67
2021/06/03 06:01:23;;;;;;;10.90;3.08;;;;;;;31.90;23.27;99767.36;1647827;86;21058;-66
2021/06/03 06:06:29;;;;;;;4.50;3.35;;;;;;;31.15;24.16;99778.49;1647700;86;20935;-70
2021/06/03 06:08:59;;;;;;;5.40;3.27;;;;;;;30.89;24.59;99782.14;1647871;87;21023;-68
2021/06/03 06:11:28;;;;;;;7.33;3.72;;;;;;;30.64;24.90;99781.09;1647250;87;21552;-71
2021/06/03 06:13:55;;;;;;;4.03;3.42;;;;;;;30.53;25.12;99780.98;1648220;87;21498;-69
2021/06/03 06:16:23;;;;;;;7.28;3.12;;;;;;;30.69;25.04;99782.39;1645877;86;21023;-60
2021/06/03 06:18:49;;;;;;;4.60;3.27;;;;;;;30.77;24.93;99787.78;1647813;87;21002;-61
2021/06/03 06:21:18;;;;;;;5.22;3.08;;;;;;;30.64;24.87;99792.63;1647837;85;21534;-62
2021/06/03 06:23:45;;;;;;;5.72;3.67;;;;;;;30.27;25.42;99795.51;1648041;86;20970;-60
2021/06/03 06:26:11;;;;;;;8.80;3.33;;;;;;;30.10;25.57;99795.16;1647657;87;21074;-61
2021/06/03 06:28:38;;;;;;;6.70;3.72;;;;;;;30.07;25.90;99796.28;1647740;84;21113;-60
2021/06/03 06:31:05;;;;;;;7.15;3.77;;;;;;;30.20;25.70;99792.85;1680578;85;20991;-57
2021/06/03 06:33:34;;;;;;;4.55;3.67;;;;;;;30.38;25.51;99790.75;1661341;86;21406;-61
2021/06/03 06:36:03;;;;;;;8.95;3.27;;;;;;;30.22;25.67;99796.14;1661162;86;21488;-66
2021/06/03 06:38:31;;;;;;;7.85;3.87;;;;;;;30.19;25.83;99794.77;1661351;85;20942;-67
2021/06/03 06:40:57;;;;;;;4.87;4.30;;;;;;;30.46;25.76;99799.72;1661237;86;21133;-67
2021/06/03 06:43:24;;;;;;;9.25;3.65;;;;;;;30.77;25.37;99789.16;1636241;86;20999;-67
2021/06/03 06:45:51;;;;;;;6.42;3.10;;;;;;;30.84;25.29;99793.75;1661044;86;20882;-68
2021/06/03 06:48:18;;;;;;;10.85;3.90;;;;;;;30.92;24.58;99789.80;1661155;86;21016;-68
2021/06/03 06:50:47;;;;;;;8.70;3.92;;;;;;;31.04;24.04;99797.61;1660987;86;20973;-66
2021/06/03 06:53:13;;;;;;;9.60;3.00;;;;;;;30.99;23.57;99794.39;1660938;86;21081;-66
2021/06/03 06:55:41;;;;;;;6.15;3.62;;;;;;;30.99;24.07;99795.77;1660904;86;21429;-66
2021/06/03 07:44:13;;;;;;;3.98;1.90;;;;;;;31.80;21.46;99782.12;1796501;78;22710;-59
2021/06/03 07:46:40;;;;;;;3.55;2.10;;;;;;;32.15;20.68;99790.28;1755268;79;20896;-56
2021/06/03 07:49:07;;;;;;;6.67;1.75;;;;;;;32.28;19.49;99787.55;1755944;79;21951;-59
2021/06/03 07:51:34;;;;;;;8.80;2.08;;;;;;;32.24;20.00;99786.54;1794512;79;21531;-58
2021/06/03 07:54:01;;;;;;;6.40;2.08;;;;;;;32.35;20.19;99794.04;1792389;79;21006;-57
2021/06/03 07:56:27;;;;;;;3.92;1.65;;;;;;;32.62;19.71;99788.53;1739063;79;20990;-58
2021/06/03 07:58:55;;;;;;;5.80;1.80;;;;;;;32.65;19.77;99791.23;1728433;79;20954;-58
2021/06/03 08:01:22;;;;;;;12.90;2.15;;;;;;;32.88;19.24;99788.23;1731853;79;21148;-62
2021/06/03 08:03:48;;;;;;;53.83;4.97;;;;;;;33.07;19.25;99787.30;1756859;79;21000;-59
2021/06/03 08:06:15;;;;;;;14.98;2.50;;;;;;;33.25;19.57;99789.90;1760525;79;20986;-59
2021/06/03 08:08:41;;;;;;;76.53;6.50;;;;;;;33.39;19.27;99787.09;1804295;79;20994;-61
2021/06/03 08:11:07;;;;;;;19.48;2.70;;;;;;;33.56;19.46;99787.23;1806793;79;20936;-59
2021/06/03 08:13:35;;;;;;;7.17;2.02;;;;;;;33.61;19.12;99787.11;1757766;79;21204;-59
2021/06/03 08:16:03;;;;;;;5.85;1.77;;;;;;;33.70;19.84;99776.95;1777533;79;21026;-60
2021/06/03 08:18:31;;;;;;;7.40;1.65;;;;;;;33.78;18.14;99784.47;1774426;79;20983;-58
2021/06/03 08:20:59;;;;;;;4.35;1.55;;;;;;;33.36;17.98;99774.75;1762343;80;20946;-62
2021/06/03 08:23:28;;;;;;;5.17;1.67;;;;;;;33.14;19.17;99779.44;1775359;79;21533;-62
2021/06/03 08:25:58;;;;;;;6.87;1.67;;;;;;;33.21;19.02;99772.37;1770167;80;21089;-60
2021/06/03 08:28:25;;;;;;;30.85;2.90;;;;;;;33.13;18.57;99767.59;1774793;79;21149;-61
2021/06/03 08:30:52;;;;;;;89.45;5.15;;;;;;;32.98;18.66;99772.06;1771387;79;21056;-64
2021/06/03 08:33:19;;;;;;;138.25;7.87;;;;;;;32.97;18.99;99782.81;1770719;80;21000;-58
2021/06/03 08:35:45;;;;;;;85.38;5.00;;;;;;;33.16;19.58;99776.62;1767761;79;21503;-59
2021/06/03 08:38:12;;;;;;;35.73;3.55;;;;;;;33.53;18.64;99780.37;1773214;80;21167;-58
2021/06/03 08:40:45;;;;;;;60.38;3.22;;;;;;;33.43;18.65;99783.39;1767822;79;20920;-58
2021/06/03 08:43:12;;;;;;;6.60;1.80;;;;;;;33.31;18.54;99772.67;1771055;80;20940;-59
2021/06/03 08:45:42;;;;;;;10.40;1.42;;;;;;;33.16;19.08;99774.42;1766892;79;21343;-59
2021/06/03 08:48:09;;;;;;;24.20;1.90;;;;;;;33.32;18.80;99778.45;1753893;80;20893;-58
2021/06/03 08:50:40;;;;;;;7.72;1.85;;;;;;;33.28;18.91;99769.16;1761291;80;21103;-57
2021/06/03 08:53:07;;;;;;;9.65;2.12;;;;;;;33.25;19.17;99767.84;1767105;79;21551;-59
2021/06/03 08:58:22;;;;;;;14.38;2.17;;;;;;;32.77;19.81;99756.52;1773160;80;21102;-65
2021/06/03 09:00:48;;;;;;;8.20;1.95;;;;;;;32.59;20.61;99764.95;1774552;79;21556;-63
2021/06/03 09:03:15;;;;;;;3.60;1.87;;;;;;;32.64;21.06;99766.21;1763563;80;21846;-58
2021/06/03 09:05:41;;;;;;;5.33;1.80;;;;;;;32.68;21.15;99768.59;1774962;79;20968;-60
2021/06/03 09:08:22;;;;;;;5.78;1.77;;;;;;;32.53;19.99;99768.92;1765933;80;20915;-59
2021/06/03 09:10:51;;;;;;;5.83;1.55;;;;;;;32.18;19.78;99769.04;1768806;80;21003;-59
2021/06/03 09:13:34;;;;;;;3.22;1.60;;;;;;;31.32;21.20;99771.07;1774921;80;20889;-57
2021/06/03 09:16:13;;;;;;;2.70;1.60;;;;;;;31.05;21.60;99768.45;1776715;80;20937;-61
2021/06/03 09:19:00;;;;;;;7.83;1.80;;;;;;;30.73;22.38;99767.53;1773725;79;22266;-62
2021/06/03 09:21:30;;;;;;;5.78;1.75;;;;;;;30.70;22.23;99770.86;1771194;80;20893;-67
2021/06/03 09:24:03;;;;;;;8.93;4.90;;;;;;;30.50;22.61;99763.14;1771174;80;20948;-61
2021/06/03 09:26:35;;;;;;;4.42;2.00;;;;;;;30.49;21.98;99761.53;1767111;80;20838;-60
2021/06/03 09:29:04;;;;;;;3.35;1.70;;;;;;;30.49;21.83;99751.92;1766060;80;21142;-62
2021/06/03 09:31:35;;;;;;;6.20;1.40;;;;;;;30.48;22.56;99754.94;1769222;80;20976;-60
2021/06/03 09:34:21;;;;;;;5.30;1.70;;;;;;;30.56;22.42;99751.55;1716501;82;20988;-61
2021/06/03 09:36:54;;;;;;;3.65;1.42;;;;;;;30.63;21.92;99755.32;1734110;82;20939;-64
2021/06/03 09:39:34;;;;;;;1.40;1.30;;;;;;;30.43;21.12;99751.72;1719633;83;20878;-61
2021/06/03 09:42:08;;;;;;;3.98;1.47;;;;;;;30.29;20.72;99754.07;1722823;81;21144;-61
2021/06/03 09:44:41;;;;;;;4.22;1.32;;;;;;;29.90;21.44;99750.13;1709585;81;21010;-61
2021/06/03 09:47:15;;;;;;;6.37;1.60;;;;;;;29.73;21.82;99755.19;1713539;83;20949;-61
2021/06/03 09:49:56;;;;;;;6.47;1.65;;;;;;;29.80;21.88;99747.49;1711513;83;20992;-61
2021/06/03 09:52:32;;;;;;;5.67;1.60;;;;;;;30.00;21.97;99751.94;1714824;83;20998;-61
2021/06/03 09:55:02;;;;;;;4.37;1.82;;;;;;;30.07;21.84;99749.10;1712731;83;21909;-62
2021/06/03 09:57:39;;;;;;;3.30;1.35;;;;;;;29.88;21.80;99755.88;1716909;83;21522;-61
2021/06/03 10:00:16;;;;;;;7.00;1.50;;;;;;;29.66;22.08;99762.39;1710583;83;21000;-62
2021/06/03 10:02:44;;;;;;;3.12;1.87;;;;;;;29.59;22.22;99756.98;1710926;83;21515;-64
2021/06/03 10:05:20;;;;;;;5.80;1.67;;;;;;;29.53;21.97;99754.01;1677367;84;21717;-63
2021/06/03 10:08:00;;;;;;;;;;;;;;;29.40;22.83;99758.78;1690675;83;21868;-63
2021/06/03 10:10:30;;;;;;;3.62;1.60;;;;;;;29.38;22.27;99750.86;1720818;83;20116;-63
2021/06/03 10:13:00;;;;;;;5.10;1.60;;;;;;;29.38;22.02;99753.02;1720620;83;20933;-66
2021/06/03 10:15:33;;;;;;;4.42;1.30;;;;;;;29.45;22.35;99757.36;1701091;83;21057;-66
2021/06/03 10:18:07;;;;;;;3.33;1.47;;;;;;;29.47;22.01;99751.04;1723014;81;20978;-64
2021/06/03 10:20:52;;;;;;;6.72;1.47;;;;;;;29.40;21.92;99756.86;1727105;83;21456;-66
2021/06/03 10:23:21;;;;;;;1.52;1.30;;;;;;;29.42;22.22;99757.94;1720183;83;20988;-63
2021/06/03 10:25:59;;;;;;;6.85;4.70;;;;;;;29.56;22.71;99760.29;1723706;83;21044;-59
2021/06/03 10:28:26;;;;;;;2.75;2.47;;;;;;;29.57;22.53;99755.05;1722051;83;21053;-62
2021/06/03 10:30:57;;;;;;;8.00;1.70;;;;;;;29.50;22.26;99755.95;1725478;83;20957;-64
2021/06/03 10:33:27;;;;;;;6.17;1.30;;;;;;;29.38;22.36;99752.78;1721039;83;21514;-64
2021/06/03 10:36:03;;;;;;;2.70;1.40;;;;;;;29.13;22.25;99755.11;1726120;83;20960;-64
2021/06/03 10:38:30;;;;;;;2.72;1.77;;;;;;;29.03;22.30;99751.91;1724525;83;21448;-68
2021/06/03 10:41:00;;;;;;;8.15;1.80;;;;;;;29.15;22.49;99744.14;1720380;81;21089;-64
2021/06/03 10:43:33;;;;;;;2.17;1.37;;;;;;;29.29;22.92;99747.91;1725313;82;20847;-64
2021/06/03 10:45:59;;;;;;;5.08;1.60;;;;;;;29.23;22.42;99743.56;1726548;83;21100;-64
2021/06/03 10:48:26;;;;;;;3.67;2.35;;;;;;;28.92;22.73;99750.33;1722608;83;21000;-62
2021/06/03 10:50:53;;;;;;;4.10;2.47;;;;;;;28.76;23.12;99754.25;1721352;81;21024;-64
2021/06/03 10:53:24;;;;;;;3.27;2.27;;;;;;;28.65;23.30;99755.43;1719207;83;20993;-64
2021/06/03 10:55:56;;;;;;;4.90;2.05;;;;;;;28.60;22.95;99745.84;1717772;83;20886;-64
2021/06/03 10:58:36;;;;;;;3.58;1.60;;;;;;;28.65;23.23;99742.53;1716439;83;22026;-64
2021/06/03 11:01:07;;;;;;;6.12;1.70;;;;;;;28.55;23.25;99754.88;1721089;82;21009;-65
2021/06/03 11:03:41;;;;;;;6.45;2.10;;;;;;;28.47;23.58;99749.98;1721750;82;20925;-64
2021/06/03 11:06:10;;;;;;;2.12;1.32;;;;;;;28.31;23.70;99746.25;1719618;82;20969;-62
2021/06/03 11:08:41;;;;;;;2.05;1.47;;;;;;;28.16;23.51;99756.13;1717152;83;21107;-62
2021/06/03 11:11:14;;;;;;;7.97;1.70;;;;;;;27.96;23.54;99751.23;1718059;83;21222;-64
2021/06/03 11:13:53;;;;;;;6.30;1.87;;;;;;;27.88;23.71;99749.89;1713138;83;21577;-65
2021/06/03 11:16:36;;;;;;;5.25;1.82;;;;;;;27.83;24.10;99754.00;1730658;81;20974;-64
2021/06/03 11:19:06;;;;;;;3.72;1.80;;;;;;;27.76;24.17;99743.91;1709971;81;20966;-59
2021/06/03 11:21:43;;;;;;;5.30;1.92;;;;;;;27.63;24.22;99753.21;1741185;81;21058;-59
2021/06/03 11:24:22;;;;;;;5.72;1.90;;;;;;;27.47;24.63;99749.13;1742037;81;21864;-60
2021/06/03 11:26:55;;;;;;;3.50;1.50;;;;;;;27.38;24.96;99754.00;1717040;81;21504;-62
2021/06/03 11:29:41;;;;;;;8.98;1.80;;;;;;;27.55;25.20;99754.59;1704237;82;21007;-64
2021/06/03 11:32:15;;;;;;;8.00;1.65;;;;;;;27.53;24.55;99753.48;1710214;82;21113;-62
2021/06/03 11:34:45;;;;;;;8.18;1.90;;;;;;;27.53;25.16;99748.02;1716033;82;21052;-63
2021/06/03 11:37:22;;;;;;;4.15;1.55;;;;;;;27.59;24.64;99750.20;1673836;82;21169;-65
2021/06/03 11:40:10;;;;;;;3.95;1.67;;;;;;;27.49;24.53;99742.84;1706842;82;21025;-64
2021/06/03 11:42:40;;;;;;;2.75;1.85;;;;;;;27.33;24.87;99745.27;1688343;84;20998;-63
2021/06/03 11:45:16;;;;;;;2.22;1.57;;;;;;;27.21;25.05;99753.45;1736001;81;20880;-68
2021/06/03 11:47:52;;;;;;;3.45;1.32;;;;;;;27.27;25.18;99753.17;1709909;83;21005;-66
2021/06/03 11:50:23;;;;;;;4.05;2.02;;;;;;;27.44;25.17;99751.58;1718660;83;21158;-67
2021/06/03 11:52:59;;;;;;;4.85;1.67;;;;;;;27.58;25.02;99745.84;1718093;82;21545;-67
2021/06/03 11:55:56;;;;;;;;;;;;;;;27.71;25.20;99743.09;1722321;83;20910;-64
2021/06/03 11:58:40;;;;;;;3.83;1.70;;;;;;;27.72;24.92;99742.80;1716083;83;20653;-66
2021/06/03 12:01:19;;;;;;;4.87;1.87;;;;;;;27.74;25.28;99745.28;1717435;83;20957;-62
2021/06/03 12:04:08;;;;;;;6.53;1.98;;;;;;;27.76;25.30;99738.45;1701496;83;20951;-67
2021/06/03 12:06:50;;;;;;;5.90;2.20;;;;;;;27.80;25.42;99742.25;1707914;83;21544;-64
2021/06/03 12:09:26;;;;;;;5.53;1.85;;;;;;;27.65;25.06;99738.17;1711632;82;20971;-64
2021/06/03 12:11:54;;;;;;;;;;;;;;;27.53;25.17;99741.75;1716995;82;20904;-73
2021/06/03 12:14:28;;;;;;;6.58;1.70;;;;;;;27.53;25.03;99749.37;1702133;81;20428;-74
2021/06/03 12:17:00;;;;;;;2.77;1.60;;;;;;;27.55;24.33;99744.48;1719075;81;21688;-73
2021/06/03 12:19:38;;;;;;;3.27;1.57;;;;;;;27.54;24.56;99751.57;1705995;81;20954;-59
2021/06/03 12:22:08;;;;;;;6.12;2.20;;;;;;;27.60;24.94;99749.12;1713768;82;20994;-60
2021/06/03 12:24:45;;;;;;;4.65;1.90;;;;;;;27.56;24.78;99743.91;1742374;81;21116;-60
2021/06/03 12:27:34;;;;;;;9.98;2.40;;;;;;;27.45;25.07;99744.47;1746749;81;20964;-60
2021/06/03 12:30:17;;;;;;;7.33;2.77;;;;;;;27.35;25.54;99745.02;1706505;82;22031;-59
2021/06/03 12:33:14;;;;;;;4.15;2.00;;;;;;;27.28;25.48;99749.36;1723735;81;21017;-58
2021/06/03 12:35:49;;;;;;;4.83;2.10;;;;;;;27.24;25.80;99748.82;1729019;81;21016;-60
2021/06/03 12:38:34;;;;;;;6.75;2.98;;;;;;;27.20;25.92;99751.80;1737974;81;20950;-58
2021/06/03 12:41:21;;;;;;;3.60;2.20;;;;;;;27.19;26.25;99749.65;1750376;81;20895;-58